createdAt,value
2018-07-30T00:03:52.934Z,24.10
2018-07-30T00:08:59.820Z,24.10
2018-07-30T00:14:03.660Z,24.00
2018-07-30T00:19:07.242Z,23.90
2018-07-30T00:24:10.777Z,23.80
2018-07-30T00:29:14.326Z,23.80
2018-07-30T00:34:17.978Z,23.80
2018-07-30T00:39:21.923Z,23.80
2018-07-30T00:44:25.539Z,23.70
2018-07-30T00:49:30.586Z,23.60
2018-07-30T00:54:34.132Z,23.60
2018-07-30T00:59:38.052Z,23.60
2018-07-30T01:04:41.634Z,23.60
2018-07-30T01:09:45.224Z,23.50
2018-07-30T01:14:48.771Z,23.50
2018-07-30T01:19:53.138Z,23.50
2018-07-30T01:24:56.664Z,23.40
2018-07-30T01:30:00.218Z,23.30
2018-07-30T01:35:03.890Z,23.20
2018-07-30T01:40:09.386Z,23.20
2018-07-30T01:45:13.007Z,23.20
2018-07-30T01:50:16.634Z,23.20
2018-07-30T01:55:20.484Z,23.20
2018-07-30T02:00:25.019Z,23.10
2018-07-30T02:05:28.619Z,23.00
2018-07-30T02:10:32.275Z,22.90
2018-07-30T02:15:36.099Z,22.90
2018-07-30T02:20:39.934Z,22.80
2018-07-30T02:25:49.374Z,22.70
2018-07-30T02:30:53.000Z,22.70
2018-07-30T02:35:56.596Z,22.60
2018-07-30T02:41:00.222Z,22.50
2018-07-30T02:46:03.831Z,22.50
2018-07-30T02:51:10.341Z,22.40
2018-07-30T02:56:15.494Z,22.30
2018-07-30T03:01:19.067Z,22.20
2018-07-30T03:06:22.656Z,22.30
2018-07-30T03:11:26.239Z,22.20
2018-07-30T03:16:30.589Z,22.10
2018-07-30T03:21:34.263Z,22.10
2018-07-30T03:26:37.816Z,22.00
2018-07-30T03:31:41.390Z,22.00
2018-07-30T03:36:44.979Z,21.90
2018-07-30T03:41:48.559Z,21.90
2018-07-30T03:46:53.095Z,21.80
2018-07-30T03:51:56.668Z,21.80
2018-07-30T03:57:00.215Z,21.70
2018-07-30T04:02:03.818Z,21.70
2018-07-30T04:07:08.271Z,21.70
2018-07-30T04:12:11.867Z,21.60
2018-07-30T04:17:28.130Z,21.60
2018-07-30T04:22:31.691Z,21.60
2018-07-30T04:27:35.226Z,21.60
2018-07-30T04:32:38.807Z,21.60
2018-07-30T04:42:46.747Z,21.70
2018-07-30T04:47:50.580Z,21.70
2018-07-30T04:52:54.155Z,21.70
2018-07-30T04:57:57.971Z,21.70
2018-07-30T05:03:05.803Z,21.70
2018-07-30T05:08:09.368Z,21.80
2018-07-30T05:13:13.388Z,21.90
2018-07-30T05:18:17.038Z,22.00
2018-07-30T05:23:20.648Z,22.10
2018-07-30T05:28:24.223Z,22.20
2018-07-30T05:33:28.164Z,22.30
2018-07-30T05:38:31.748Z,22.50
2018-07-30T05:43:35.475Z,22.60
2018-07-30T05:48:38.995Z,22.80
2018-07-30T05:53:42.600Z,22.90
2018-07-30T05:58:46.194Z,23.10
2018-07-30T06:03:49.760Z,23.30
2018-07-30T06:08:53.340Z,23.50
2018-07-30T06:13:56.928Z,23.60
2018-07-30T06:19:00.482Z,23.70
2018-07-30T06:24:06.943Z,24.00
2018-07-30T06:29:10.777Z,24.00
2018-07-30T06:34:15.076Z,24.20
2018-07-30T06:39:18.680Z,24.40
2018-07-30T06:44:22.298Z,24.60
2018-07-30T06:49:25.888Z,24.70
2018-07-30T06:54:30.210Z,24.80
2018-07-30T06:59:33.784Z,24.60
2018-07-30T07:04:37.347Z,24.60
2018-07-30T07:09:40.935Z,24.70
2018-07-30T07:14:44.557Z,24.80
2018-07-30T07:19:48.114Z,24.90
2018-07-30T07:24:51.712Z,25.20
2018-07-30T07:29:55.431Z,25.60
2018-07-30T07:34:59.185Z,25.80
2018-07-30T07:40:02.841Z,25.90
2018-07-30T07:45:06.736Z,26.20
2018-07-30T07:50:13.183Z,26.00
2018-07-30T07:55:16.928Z,26.00
2018-07-30T08:00:23.627Z,26.00
2018-07-30T08:05:27.585Z,26.10
2018-07-30T08:10:31.531Z,26.60
2018-07-30T08:15:35.088Z,26.80
2018-07-30T08:20:38.649Z,26.60
2018-07-30T08:25:42.320Z,26.70
2018-07-30T08:30:45.946Z,26.90
2018-07-30T08:35:49.657Z,26.80
2018-07-30T08:40:53.222Z,27.20
2018-07-30T08:45:56.915Z,27.70
2018-07-30T08:51:00.518Z,27.60
2018-07-30T08:56:04.100Z,27.90
2018-07-30T09:01:08.723Z,28.30
2018-07-30T09:06:13.076Z,28.60
2018-07-30T09:11:16.709Z,28.50
2018-07-30T09:16:20.310Z,29.00
2018-07-30T09:21:23.855Z,29.40
2018-07-30T09:26:27.404Z,29.70
2018-07-30T09:31:31.699Z,30.20
2018-07-30T09:36:35.309Z,30.60
2018-07-30T09:41:39.090Z,30.90
2018-07-30T09:46:42.712Z,31.00
2018-07-30T09:51:46.321Z,31.30
2018-07-30T09:56:50.344Z,31.60
2018-07-30T10:01:53.907Z,31.70
2018-07-30T10:06:57.470Z,31.80
2018-07-30T10:12:01.037Z,31.30
2018-07-30T10:17:04.610Z,31.20
2018-07-30T10:22:08.446Z,31.40
2018-07-30T10:27:11.964Z,32.00
2018-07-30T10:32:15.609Z,32.50
2018-07-30T10:37:19.196Z,32.50
2018-07-30T10:42:22.757Z,32.20
2018-07-30T10:47:26.313Z,32.20
2018-07-30T10:52:29.922Z,32.60
2018-07-30T10:57:33.503Z,33.00
2018-07-30T11:02:37.430Z,33.20
2018-07-30T11:07:41.040Z,33.30
2018-07-30T11:12:44.580Z,33.40
2018-07-30T11:17:48.103Z,33.60
2018-07-30T11:22:51.785Z,33.80
2018-07-30T11:27:56.115Z,33.70
2018-07-30T11:32:59.679Z,33.60
2018-07-30T11:38:03.930Z,34.00
2018-07-30T11:43:07.545Z,35.00
2018-07-30T11:48:11.149Z,35.50
2018-07-30T11:53:15.016Z,35.80
2018-07-30T11:58:18.592Z,35.90
2018-07-30T12:03:22.204Z,36.00
2018-07-30T12:08:26.023Z,36.40
2018-07-30T12:13:30.171Z,36.50
2018-07-30T12:18:33.717Z,36.80
2018-07-30T12:23:37.354Z,37.10
2018-07-30T12:28:41.064Z,37.10
2018-07-30T12:33:44.586Z,37.10
2018-07-30T12:38:48.177Z,37.50
2018-07-30T12:43:51.961Z,37.70
2018-07-30T12:48:55.524Z,38.00
2018-07-30T12:53:59.111Z,38.10
2018-07-30T12:59:03.586Z,38.20
2018-07-30T13:09:35.436Z,37.20
2018-07-30T13:14:40.467Z,37.00
2018-07-30T13:19:45.695Z,37.30
2018-07-30T13:24:49.259Z,36.90
2018-07-30T13:29:52.812Z,37.10
2018-07-30T13:34:56.366Z,37.40
2018-07-30T13:39:59.986Z,38.30
2018-07-30T13:45:04.915Z,39.00
2018-07-30T13:50:09.467Z,39.50
2018-07-30T13:55:13.087Z,39.70
2018-07-30T14:00:16.699Z,40.00
2018-07-30T14:05:20.263Z,40.00
2018-07-30T14:15:31.311Z,40.30
2018-07-30T14:20:35.007Z,40.30
2018-07-30T14:30:41.823Z,40.50
2018-07-30T14:35:45.355Z,40.80
2018-07-30T14:40:48.916Z,41.30
2018-07-30T14:45:53.367Z,41.50
2018-07-30T14:50:56.938Z,41.60
2018-07-30T15:01:04.555Z,41.40
2018-07-30T15:06:08.127Z,41.30
2018-07-30T15:11:12.904Z,40.90
2018-07-30T15:16:16.454Z,40.10
2018-07-30T15:21:20.024Z,39.50
2018-07-30T15:26:23.562Z,39.20
2018-07-30T15:36:55.467Z,39.60
2018-07-30T15:41:59.652Z,39.70
2018-07-30T15:47:03.237Z,40.10
2018-07-30T15:52:07.177Z,39.50
2018-07-30T15:57:10.753Z,39.20
2018-07-30T16:02:14.304Z,39.40
2018-07-30T16:07:18.227Z,39.40
2018-07-30T16:12:21.781Z,38.50
2018-07-30T16:17:25.309Z,38.50
2018-07-30T16:22:29.239Z,38.90
2018-07-30T16:27:32.770Z,39.30
2018-07-30T16:32:36.315Z,39.80
2018-07-30T16:37:39.926Z,39.70
2018-07-30T16:42:43.942Z,39.40
2018-07-30T16:47:47.472Z,39.00
2018-07-30T16:52:51.067Z,38.30
2018-07-30T16:57:54.604Z,37.70
2018-07-30T17:02:58.194Z,37.20
2018-07-30T17:08:02.021Z,37.00
2018-07-30T17:13:05.770Z,36.70
2018-07-30T17:18:10.115Z,36.50
2018-07-30T17:23:13.743Z,36.30
2018-07-30T17:28:17.298Z,36.20
2018-07-30T17:33:20.860Z,36.20
2018-07-30T17:38:24.422Z,36.10
2018-07-30T17:43:28.240Z,36.20
2018-07-30T17:48:31.767Z,35.90
2018-07-30T17:53:36.730Z,35.80
2018-07-30T17:58:40.314Z,35.70
2018-07-30T18:03:43.842Z,35.70
2018-07-30T18:08:47.761Z,35.50
2018-07-30T18:13:51.299Z,35.40
2018-07-30T18:18:54.843Z,35.40
2018-07-30T18:23:58.436Z,35.40
2018-07-30T18:29:01.987Z,35.40
2018-07-30T18:34:05.886Z,35.40
2018-07-30T18:39:09.436Z,35.10
2018-07-30T18:44:13.402Z,34.80
2018-07-30T18:49:16.926Z,34.50
2018-07-30T18:54:20.470Z,34.20
2018-07-30T18:59:24.154Z,34.10
2018-07-30T19:04:27.704Z,33.80
2018-07-30T19:09:31.224Z,33.40
2018-07-30T19:14:34.780Z,33.20
2018-07-30T19:19:38.329Z,32.90
2018-07-30T19:24:43.779Z,32.50
2018-07-30T19:29:47.326Z,32.10
2018-07-30T19:34:50.876Z,31.90
2018-07-30T19:39:54.959Z,31.70
2018-07-30T19:44:58.565Z,31.40
2018-07-30T19:50:02.123Z,31.20
2018-07-30T19:55:06.254Z,31.00
2018-07-30T20:00:09.832Z,30.70
2018-07-30T20:05:13.702Z,30.50
2018-07-30T20:10:17.987Z,30.40
2018-07-30T20:15:21.690Z,30.20
2018-07-30T20:20:25.214Z,30.00
2018-07-30T20:25:28.833Z,29.70
2018-07-30T20:30:32.392Z,29.50
2018-07-30T20:35:35.935Z,29.40
2018-07-30T20:40:40.484Z,29.00
2018-07-30T20:45:44.483Z,28.90
2018-07-30T20:50:48.036Z,28.90
2018-07-30T20:55:51.560Z,28.90
2018-07-30T21:00:55.100Z,28.90
2018-07-30T21:05:59.006Z,28.80
2018-07-30T21:11:02.601Z,28.70
2018-07-30T21:16:06.781Z,28.60
2018-07-30T21:21:10.435Z,28.50
2018-07-30T21:26:13.996Z,28.40
2018-07-30T21:31:17.530Z,28.20
2018-07-30T21:36:21.055Z,28.00
2018-07-30T21:46:52.849Z,27.90
2018-07-30T21:51:57.571Z,27.80
2018-07-30T21:57:01.907Z,27.70
2018-07-30T22:02:06.210Z,27.70
2018-07-30T22:07:09.731Z,27.80
2018-07-30T22:12:13.306Z,27.80
2018-07-30T22:17:17.062Z,27.70
2018-07-30T22:22:20.572Z,27.50
2018-07-30T22:27:24.154Z,27.30
2018-07-30T22:32:28.591Z,27.20
2018-07-30T22:37:32.142Z,27.20
2018-07-30T22:42:35.750Z,27.00
2018-07-30T22:47:39.293Z,26.70
2018-07-30T22:52:42.852Z,26.50
2018-07-30T22:57:47.035Z,26.40
2018-07-30T23:02:50.581Z,26.40
2018-07-30T23:07:54.139Z,26.30
2018-07-30T23:12:57.718Z,26.20
2018-07-30T23:18:01.285Z,26.10
2018-07-30T23:23:04.825Z,26.20
2018-07-30T23:28:08.376Z,26.20
2018-07-30T23:33:11.899Z,26.30
2018-07-30T23:38:15.684Z,26.10
2018-07-30T23:43:19.449Z,25.90
2018-07-30T23:48:22.983Z,25.80
2018-07-30T23:53:26.523Z,25.70
2018-07-30T23:58:30.347Z,25.70
